createdAt,value
2023-05-10T00:01:44.156Z,8.92
2023-05-10T00:04:13.935Z,8.90
2023-05-10T00:06:42.322Z,8.94
2023-05-10T00:09:13.405Z,8.81
2023-05-10T00:11:43.387Z,8.79
2023-05-10T00:14:10.708Z,8.85
2023-05-10T00:16:38.008Z,8.85
2023-05-10T00:19:05.348Z,8.81
2023-05-10T00:21:33.406Z,8.91
2023-05-10T00:24:04.200Z,8.80
2023-05-10T00:26:32.902Z,8.87
2023-05-10T00:29:00.123Z,8.96
2023-05-10T00:31:27.447Z,8.92
2023-05-10T00:33:54.853Z,8.90
2023-05-10T00:36:22.341Z,8.85
2023-05-10T00:38:49.566Z,8.87
2023-05-10T00:41:18.826Z,8.84
2023-05-10T00:43:47.554Z,8.80
2023-05-10T00:46:15.774Z,8.71
2023-05-10T00:48:48.518Z,8.57
2023-05-10T00:51:15.719Z,8.42
2023-05-10T00:53:44.880Z,8.41
2023-05-10T00:56:12.401Z,8.53
2023-05-10T00:58:39.776Z,8.62
2023-05-10T01:01:10.300Z,8.60
2023-05-10T01:03:38.047Z,8.79
2023-05-10T01:06:06.039Z,8.69
2023-05-10T01:08:33.479Z,8.73
2023-05-10T01:11:00.896Z,8.70
2023-05-10T01:13:34.332Z,8.70
2023-05-10T01:16:04.291Z,8.50
2023-05-10T01:18:36.579Z,8.54
2023-05-10T01:21:16.000Z,8.39
2023-05-10T01:24:20.761Z,8.28
2023-05-10T01:27:38.983Z,8.42
2023-05-10T01:30:36.377Z,8.38
2023-05-10T01:33:11.246Z,8.32
2023-05-10T01:35:42.846Z,8.41
2023-05-10T01:38:18.080Z,8.46
2023-05-10T01:40:53.457Z,8.43
2023-05-10T01:43:27.613Z,8.41
2023-05-10T01:46:01.814Z,8.39
2023-05-10T01:48:34.566Z,8.36
2023-05-10T01:51:02.223Z,8.39
2023-05-10T01:53:30.371Z,8.18
2023-05-10T01:55:58.799Z,8.20
2023-05-10T01:58:30.813Z,8.18
2023-05-10T02:01:01.899Z,8.24
2023-05-10T02:03:39.288Z,8.41
2023-05-10T02:06:09.590Z,8.26
2023-05-10T02:08:41.172Z,8.22
2023-05-10T02:11:14.253Z,8.16
2023-05-10T02:13:48.080Z,8.16
2023-05-10T02:16:19.091Z,8.02
2023-05-10T02:18:49.193Z,7.94
2023-05-10T02:21:17.414Z,8.02
2023-05-10T02:23:54.255Z,7.99
2023-05-10T02:26:23.355Z,7.93
2023-05-10T02:28:51.748Z,7.87
2023-05-10T02:31:25.475Z,7.87
2023-05-10T02:33:55.996Z,7.95
2023-05-10T02:36:24.325Z,7.98
2023-05-10T02:38:53.993Z,7.94
2023-05-10T02:41:23.793Z,7.91
2023-05-10T02:43:53.169Z,7.81
2023-05-10T02:46:20.783Z,7.99
2023-05-10T02:48:50.017Z,7.93
2023-05-10T02:51:22.765Z,7.95
2023-05-10T02:53:52.101Z,7.73
2023-05-10T02:56:27.042Z,7.76
2023-05-10T02:58:54.254Z,7.73
2023-05-10T03:01:23.209Z,7.88
2023-05-10T03:03:52.330Z,7.87
2023-05-10T03:06:23.272Z,7.84
2023-05-10T03:08:52.594Z,7.69
2023-05-10T03:11:33.234Z,7.70
2023-05-10T03:14:14.073Z,7.80
2023-05-10T03:16:50.082Z,7.80
2023-05-10T03:19:21.890Z,7.70
2023-05-10T03:21:54.799Z,7.57
2023-05-10T03:24:24.411Z,7.55
2023-05-10T03:26:53.595Z,7.57
2023-05-10T03:29:23.017Z,7.56
2023-05-10T03:31:55.348Z,7.63
2023-05-10T03:34:25.216Z,7.63
2023-05-10T03:36:53.897Z,7.55
2023-05-10T03:39:25.334Z,7.63
2023-05-10T03:41:52.677Z,7.62
2023-05-10T03:44:19.944Z,7.63
2023-05-10T03:46:47.372Z,7.56
2023-05-10T03:49:14.868Z,7.59
2023-05-10T03:51:42.090Z,7.62
2023-05-10T03:54:14.852Z,7.83
2023-05-10T03:56:43.738Z,7.76
2023-05-10T03:59:12.865Z,7.52
2023-05-10T04:01:40.099Z,7.59
2023-05-10T04:04:07.761Z,7.63
2023-05-10T04:06:35.024Z,7.55
2023-05-10T04:09:06.925Z,7.60
2023-05-10T04:11:37.598Z,7.83
2023-05-10T04:14:05.029Z,8.02
2023-05-10T04:16:32.432Z,7.91
2023-05-10T04:19:00.862Z,7.98
2023-05-10T04:21:28.387Z,8.21
2023-05-10T04:23:58.357Z,8.28
2023-05-10T04:26:26.852Z,8.41
2023-05-10T04:28:57.354Z,8.43
2023-05-10T04:31:24.724Z,8.64
2023-05-10T04:33:52.120Z,8.83
2023-05-10T04:36:21.401Z,8.91
2023-05-10T04:38:50.486Z,9.01
2023-05-10T04:41:17.741Z,9.10
2023-05-10T04:43:50.158Z,9.28
2023-05-10T04:46:20.068Z,9.22
2023-05-10T04:48:47.432Z,9.31
2023-05-10T04:51:14.925Z,9.34
2023-05-10T04:53:46.426Z,9.46
2023-05-10T04:56:21.036Z,9.62
2023-05-10T04:58:48.265Z,9.70
2023-05-10T05:01:15.578Z,9.82
2023-05-10T05:03:44.607Z,9.86
2023-05-10T05:06:12.307Z,9.97
2023-05-10T05:08:39.578Z,10.17
2023-05-10T05:11:09.825Z,10.27
2023-05-10T05:13:37.130Z,10.38
2023-05-10T05:16:06.755Z,10.49
2023-05-10T05:18:36.756Z,10.52
2023-05-10T05:21:18.041Z,10.49
2023-05-10T05:23:45.552Z,10.62
2023-05-10T05:26:12.885Z,10.73
2023-05-10T05:28:40.247Z,10.82
2023-05-10T05:31:11.640Z,10.95
2023-05-10T05:33:42.656Z,11.14
2023-05-10T05:36:11.553Z,11.28
2023-05-10T05:38:40.414Z,11.37
2023-05-10T05:41:07.810Z,11.39
2023-05-10T05:43:38.061Z,11.54
2023-05-10T05:46:08.669Z,11.64
2023-05-10T05:48:36.484Z,11.62
2023-05-10T05:52:14.586Z,11.83
2023-05-10T05:54:58.134Z,12.00
2023-05-10T05:57:25.598Z,11.97
2023-05-10T05:59:56.078Z,12.03
2023-05-10T06:02:23.550Z,12.12
2023-05-10T06:04:51.628Z,12.23
2023-05-10T06:07:19.032Z,12.30
2023-05-10T06:09:46.275Z,12.33
2023-05-10T06:12:15.208Z,12.37
2023-05-10T06:14:42.583Z,12.45
2023-05-10T06:17:09.955Z,12.48
2023-05-10T06:19:37.905Z,12.52
2023-05-10T06:22:08.005Z,12.64
2023-05-10T06:24:35.406Z,12.64
2023-05-10T06:27:05.725Z,12.82
2023-05-10T06:29:34.518Z,12.79
2023-05-10T06:32:04.599Z,12.81
2023-05-10T06:34:37.564Z,12.92
2023-05-10T06:37:04.867Z,13.15
2023-05-10T06:39:32.125Z,13.08
2023-05-10T06:41:59.668Z,13.22
2023-05-10T06:44:35.614Z,13.70
2023-05-10T06:47:05.149Z,14.37
2023-05-10T06:49:36.020Z,14.57
2023-05-10T06:52:03.342Z,14.23
2023-05-10T06:54:53.055Z,14.19
2023-05-10T06:57:31.347Z,13.95
2023-05-10T07:00:01.252Z,13.81
2023-05-10T07:02:29.161Z,14.04
2023-05-10T07:04:56.817Z,15.64
2023-05-10T07:07:31.424Z,14.74
2023-05-10T07:09:59.349Z,14.73
2023-05-10T07:12:26.868Z,14.87
2023-05-10T07:14:59.634Z,14.57
2023-05-10T07:17:28.693Z,14.84
2023-05-10T07:20:05.644Z,15.08
2023-05-10T07:22:33.123Z,14.92
2023-05-10T07:25:04.297Z,15.38
2023-05-10T07:27:31.710Z,15.05
2023-05-10T07:30:01.661Z,14.84
2023-05-10T07:32:30.750Z,15.05
2023-05-10T07:35:02.282Z,17.20
2023-05-10T07:37:29.608Z,17.14
2023-05-10T07:39:57.322Z,17.59
2023-05-10T07:42:24.774Z,17.15
2023-05-10T07:44:52.319Z,16.49
2023-05-10T07:47:19.965Z,17.30
2023-05-10T07:49:57.485Z,16.22
2023-05-10T07:52:25.038Z,16.45
2023-05-10T07:54:52.280Z,16.25
2023-05-10T08:01:36.454Z,16.21
2023-05-10T08:04:03.997Z,16.21
2023-05-10T08:06:32.989Z,16.47
2023-05-10T08:09:00.401Z,16.55
2023-05-10T08:11:33.259Z,16.44
2023-05-10T08:14:02.358Z,16.47
2023-05-10T08:16:30.098Z,16.75
2023-05-10T08:18:57.711Z,16.99
2023-05-10T08:21:25.272Z,16.94
2023-05-10T08:23:54.024Z,17.38
2023-05-10T08:26:22.830Z,16.96
2023-05-10T08:28:50.346Z,16.72
2023-05-10T08:31:17.928Z,16.72
2023-05-10T08:33:45.230Z,17.11
2023-05-10T08:36:15.288Z,17.27
2023-05-10T08:38:42.616Z,17.51
2023-05-10T08:41:12.326Z,18.37
2023-05-10T08:43:42.591Z,18.16
2023-05-10T08:46:11.687Z,18.34
2023-05-10T08:48:40.265Z,18.09
2023-05-10T08:51:09.347Z,18.40
2023-05-10T08:53:38.579Z,19.23
2023-05-10T08:56:06.744Z,19.41
2023-05-10T08:58:35.570Z,20.09
2023-05-10T09:01:03.056Z,20.57
2023-05-10T09:03:31.262Z,20.73
2023-05-10T09:05:58.795Z,20.78
2023-05-10T09:08:27.436Z,20.60
2023-05-10T09:10:55.740Z,19.88
2023-05-10T09:13:24.298Z,20.57
2023-05-10T09:15:54.310Z,20.67
2023-05-10T09:18:21.720Z,20.06
2023-05-10T09:20:53.410Z,20.51
2023-05-10T09:23:22.736Z,20.08
2023-05-10T09:26:05.614Z,20.26
2023-05-10T09:28:35.053Z,20.05
2023-05-10T09:31:03.782Z,20.22
2023-05-10T09:33:49.295Z,20.36
2023-05-10T09:36:32.765Z,20.46
2023-05-10T09:39:00.825Z,20.13
2023-05-10T09:41:29.193Z,20.15
2023-05-10T09:43:57.727Z,20.73
2023-05-10T09:46:27.256Z,20.33
2023-05-10T09:48:54.554Z,20.18
2023-05-10T09:51:22.048Z,20.43
2023-05-10T09:53:51.672Z,20.65
2023-05-10T09:56:33.979Z,20.64
2023-05-10T09:59:07.860Z,19.98
2023-05-10T10:01:40.147Z,20.12
2023-05-10T10:04:10.921Z,20.10
2023-05-10T10:06:47.447Z,20.19
2023-05-10T10:09:20.385Z,20.48
2023-05-10T10:11:54.778Z,20.48
2023-05-10T10:14:25.514Z,20.78
2023-05-10T10:17:05.539Z,20.75
2023-05-10T10:19:36.913Z,20.13
2023-05-10T10:22:04.652Z,21.06
2023-05-10T10:24:32.055Z,21.36
2023-05-10T10:27:09.123Z,21.49
2023-05-10T10:29:41.058Z,20.83
2023-05-10T10:32:23.338Z,21.56
2023-05-10T10:34:54.084Z,21.33
2023-05-10T10:37:21.639Z,20.98
2023-05-10T10:39:51.832Z,20.83
2023-05-10T10:42:49.197Z,21.31
2023-05-10T10:45:17.041Z,21.40
2023-05-10T10:48:15.180Z,21.81
2023-05-10T10:50:47.022Z,21.43
2023-05-10T10:53:15.313Z,20.74
2023-05-10T10:55:52.130Z,20.80
2023-05-10T11:01:45.696Z,21.21
2023-05-10T11:04:26.686Z,22.05
2023-05-10T11:07:20.820Z,22.31
2023-05-10T11:09:49.018Z,21.32
2023-05-10T11:12:16.331Z,21.45
2023-05-10T11:14:43.797Z,22.26
2023-05-10T11:17:27.689Z,21.81
2023-05-10T11:20:11.815Z,21.86
2023-05-10T11:22:59.380Z,23.24
2023-05-10T11:25:52.417Z,23.85
2023-05-10T11:28:22.125Z,23.25
2023-05-10T11:30:49.503Z,23.28
2023-05-10T11:33:17.986Z,22.32
2023-05-10T11:35:50.038Z,21.35
2023-05-10T11:38:17.709Z,21.47
2023-05-10T11:40:45.240Z,21.49
2023-05-10T11:43:12.678Z,22.80
2023-05-10T11:45:43.845Z,23.57
2023-05-10T11:48:11.208Z,21.96
2023-05-10T11:50:38.519Z,21.15
2023-05-10T11:53:07.340Z,21.26
2023-05-10T11:55:35.472Z,23.11
2023-05-10T11:58:03.718Z,23.51
2023-05-10T12:00:35.464Z,24.16
2023-05-10T12:03:03.494Z,23.24
2023-05-10T12:05:33.892Z,22.62
2023-05-10T12:08:49.504Z,22.02
2023-05-10T12:11:23.102Z,22.52
2023-05-10T12:13:51.063Z,21.97
2023-05-10T12:16:20.069Z,22.41
2023-05-10T12:18:52.320Z,22.15
2023-05-10T12:21:22.286Z,22.34
2023-05-10T12:23:53.612Z,21.90
2023-05-10T12:26:23.480Z,21.77
2023-05-10T12:28:50.746Z,23.18
2023-05-10T12:31:17.961Z,22.80
2023-05-10T12:33:46.284Z,21.83
2023-05-10T12:36:14.814Z,21.05
2023-05-10T12:38:44.340Z,20.99
2023-05-10T12:41:14.485Z,22.01
2023-05-10T12:43:42.026Z,24.62
2023-05-10T12:46:10.209Z,25.51
2023-05-10T12:48:38.417Z,25.67
2023-05-10T12:51:06.806Z,25.70
2023-05-10T12:53:34.124Z,26.53
2023-05-10T12:56:01.578Z,25.85
2023-05-10T13:01:01.191Z,24.23
2023-05-10T13:03:28.334Z,23.72
2023-05-10T13:05:55.486Z,23.83
2023-05-10T13:08:22.632Z,23.24
2023-05-10T13:10:50.003Z,22.48
2023-05-10T13:13:17.322Z,22.17
2023-05-10T13:15:46.154Z,22.56
2023-05-10T13:18:13.368Z,22.77
2023-05-10T13:20:40.859Z,22.90
2023-05-10T13:23:08.066Z,22.66
2023-05-10T13:25:35.629Z,22.74
2023-05-10T13:28:02.958Z,22.93
2023-05-10T13:30:30.438Z,22.59
2023-05-10T13:32:59.084Z,22.66
2023-05-10T13:35:26.410Z,22.39
2023-05-10T13:37:58.807Z,22.44
2023-05-10T13:40:25.966Z,22.32
2023-05-10T13:42:54.018Z,22.14
2023-05-10T13:45:21.279Z,22.22
2023-05-10T13:47:48.581Z,21.88
2023-05-10T13:50:17.930Z,21.66
2023-05-10T13:52:45.045Z,21.36
2023-05-10T13:55:14.198Z,21.39
2023-05-10T13:57:41.818Z,21.31
2023-05-10T14:00:10.683Z,20.98
2023-05-10T14:02:37.927Z,20.74
2023-05-10T14:05:06.117Z,20.85
2023-05-10T14:07:34.785Z,21.01
2023-05-10T14:10:02.073Z,21.29
2023-05-10T14:12:29.174Z,21.38
2023-05-10T14:14:56.311Z,21.21
2023-05-10T14:17:23.566Z,21.01
2023-05-10T14:19:50.818Z,20.81
2023-05-10T14:22:17.981Z,21.18
2023-05-10T14:24:47.903Z,21.15
2023-05-10T14:27:15.153Z,21.02
2023-05-10T14:29:42.456Z,21.11
2023-05-10T14:32:09.659Z,21.38
2023-05-10T14:34:36.766Z,21.42
2023-05-10T14:37:03.926Z,21.57
2023-05-10T14:39:31.630Z,21.25
2023-05-10T14:42:00.163Z,20.95
2023-05-10T14:44:27.476Z,20.84
2023-05-10T14:46:54.587Z,20.88
2023-05-10T14:49:23.784Z,20.71
2023-05-10T14:51:51.154Z,20.78
2023-05-10T14:54:18.301Z,20.81
2023-05-10T14:56:46.057Z,20.96
2023-05-10T14:59:14.641Z,21.16
2023-05-10T15:01:43.283Z,21.11
2023-05-10T15:04:11.054Z,20.95
2023-05-10T15:06:38.604Z,20.81
2023-05-10T15:09:05.723Z,20.67
2023-05-10T15:11:33.101Z,20.53
2023-05-10T15:14:00.282Z,20.33
2023-05-10T15:16:28.945Z,20.20
2023-05-10T15:18:56.287Z,19.95
2023-05-10T15:21:23.478Z,19.89
2023-05-10T15:23:50.617Z,20.00
2023-05-10T15:26:17.721Z,20.16
2023-05-10T15:28:45.027Z,20.37
2023-05-10T15:31:12.265Z,20.32
2023-05-10T15:33:40.748Z,20.22
2023-05-10T15:36:08.305Z,20.25
2023-05-10T15:38:35.495Z,20.09
2023-05-10T15:41:02.556Z,20.25
2023-05-10T15:43:29.677Z,20.15
2023-05-10T15:45:56.797Z,20.12
2023-05-10T15:48:23.966Z,20.09
2023-05-10T15:50:52.612Z,20.23
2023-05-10T15:53:19.891Z,20.30
2023-05-10T15:55:47.185Z,20.26
2023-05-10T15:58:14.371Z,20.30
2023-05-10T16:00:41.609Z,20.00
2023-05-10T16:03:09.083Z,19.98
2023-05-10T16:05:36.351Z,20.00
2023-05-10T16:08:05.040Z,20.02
2023-05-10T16:10:33.420Z,19.88
2023-05-10T16:13:02.391Z,19.81
2023-05-10T16:15:29.706Z,19.75
2023-05-10T16:17:58.461Z,19.65
2023-05-10T16:20:25.928Z,19.47
2023-05-10T16:22:53.129Z,19.41
2023-05-10T16:25:21.954Z,19.27
2023-05-10T16:27:49.231Z,19.35
2023-05-10T16:30:16.505Z,19.41
2023-05-10T16:32:43.669Z,19.37
2023-05-10T16:35:11.094Z,19.38
2023-05-10T16:37:38.323Z,19.43
2023-05-10T16:40:07.038Z,19.70
2023-05-10T16:42:35.927Z,19.75
2023-05-10T16:45:07.651Z,19.55
2023-05-10T16:47:35.559Z,19.50
2023-05-10T16:50:03.887Z,19.51
2023-05-10T16:52:32.551Z,19.38
2023-05-10T16:54:59.761Z,19.30
2023-05-10T16:57:27.282Z,19.33
2023-05-10T16:59:56.492Z,19.34
2023-05-10T17:02:24.000Z,19.30
2023-05-10T17:04:53.227Z,19.16
2023-05-10T17:07:20.739Z,19.17
2023-05-10T17:09:47.956Z,19.07
2023-05-10T17:12:15.199Z,19.02
2023-05-10T17:14:43.559Z,18.99
2023-05-10T17:17:12.110Z,18.85
2023-05-10T17:19:39.374Z,18.78
2023-05-10T17:22:06.537Z,18.72
2023-05-10T17:24:33.771Z,18.62
2023-05-10T17:27:01.100Z,18.59
2023-05-10T17:29:29.116Z,18.57
2023-05-10T17:31:56.479Z,18.69
2023-05-10T17:34:25.517Z,18.54
2023-05-10T17:36:52.771Z,18.27
2023-05-10T17:39:19.989Z,18.28
2023-05-10T17:41:47.274Z,18.10
2023-05-10T17:44:14.479Z,18.10
2023-05-10T17:46:41.724Z,17.86
2023-05-10T17:49:08.934Z,17.86
2023-05-10T17:51:37.536Z,17.71
2023-05-10T17:54:04.804Z,17.61
2023-05-10T17:56:32.015Z,17.46
2023-05-10T17:58:59.248Z,17.52
2023-05-10T18:01:26.564Z,17.41
2023-05-10T18:03:54.021Z,17.28
2023-05-10T18:06:21.291Z,17.20
2023-05-10T18:08:49.957Z,17.15
2023-05-10T18:11:17.205Z,17.07
2023-05-10T18:13:44.382Z,17.06
2023-05-10T18:16:13.515Z,16.96
2023-05-10T18:18:40.910Z,16.87
2023-05-10T18:21:08.137Z,16.86
2023-05-10T18:23:35.392Z,16.73
2023-05-10T18:26:03.991Z,16.77
2023-05-10T18:28:31.320Z,16.65
2023-05-10T18:30:58.529Z,16.60
2023-05-10T18:33:25.870Z,16.51
2023-05-10T18:35:53.118Z,16.49
2023-05-10T18:38:20.515Z,16.47
2023-05-10T18:40:47.832Z,16.51
2023-05-10T18:43:16.454Z,16.44
2023-05-10T18:45:44.092Z,16.45
2023-05-10T18:48:11.298Z,16.33
2023-05-10T18:50:38.485Z,16.33
2023-05-10T18:53:05.901Z,16.42
2023-05-10T18:55:33.151Z,16.32
2023-05-10T18:58:00.592Z,16.36
2023-05-10T19:00:29.179Z,16.36
2023-05-10T19:02:57.164Z,16.28
2023-05-10T19:05:31.624Z,16.20
2023-05-10T19:07:59.219Z,16.18
2023-05-10T19:10:27.941Z,16.20
2023-05-10T19:12:55.627Z,16.25
2023-05-10T19:15:23.370Z,16.11
2023-05-10T19:17:52.607Z,16.14
2023-05-10T19:20:20.078Z,16.21
2023-05-10T19:23:02.215Z,16.05
2023-05-10T19:25:35.259Z,15.96
2023-05-10T19:28:02.737Z,15.93
2023-05-10T19:30:31.765Z,15.89
2023-05-10T19:33:03.253Z,15.84
2023-05-10T19:35:31.105Z,15.90
2023-05-10T19:37:58.787Z,15.97
2023-05-10T19:40:26.270Z,15.93
2023-05-10T19:42:53.823Z,15.86
2023-05-10T19:45:21.686Z,15.81
2023-05-10T19:47:48.918Z,15.86
2023-05-10T19:50:18.306Z,15.86
2023-05-10T19:52:46.279Z,15.87
2023-05-10T19:55:25.269Z,15.86
2023-05-10T19:57:52.809Z,15.76
2023-05-10T20:00:20.155Z,15.81
2023-05-10T20:02:49.741Z,15.86
2023-05-10T20:05:18.769Z,15.89
2023-05-10T20:07:46.071Z,15.89
2023-05-10T20:10:13.410Z,15.86
2023-05-10T20:12:40.648Z,15.79
2023-05-10T20:15:08.336Z,15.80
2023-05-10T20:17:36.170Z,15.66
2023-05-10T20:20:04.016Z,15.66
2023-05-10T20:22:32.623Z,15.70
2023-05-10T20:24:59.851Z,15.70
2023-05-10T20:27:28.216Z,15.69
2023-05-10T20:29:55.710Z,15.57
2023-05-10T20:32:23.585Z,15.56
2023-05-10T20:34:50.906Z,15.62
2023-05-10T20:37:18.297Z,15.69
2023-05-10T20:39:49.050Z,15.60
2023-05-10T20:42:17.530Z,15.53
2023-05-10T20:44:44.852Z,15.52
2023-05-10T20:47:12.103Z,15.47
2023-05-10T20:49:39.505Z,15.52
2023-05-10T20:52:07.097Z,15.57
2023-05-10T20:54:34.286Z,15.56
2023-05-10T20:57:02.844Z,15.50
2023-05-10T20:59:30.057Z,15.47
2023-05-10T21:01:57.521Z,15.46
2023-05-10T21:04:25.994Z,15.49
2023-05-10T21:06:53.411Z,15.47
2023-05-10T21:09:20.812Z,15.56
2023-05-10T21:11:49.241Z,15.42
2023-05-10T21:14:18.029Z,15.47
2023-05-10T21:16:45.376Z,15.45
2023-05-10T21:19:12.658Z,15.35
2023-05-10T21:21:40.023Z,15.38
2023-05-10T21:24:07.711Z,15.34
2023-05-10T21:26:35.161Z,15.34
2023-05-10T21:29:04.927Z,15.36
2023-05-10T21:31:33.837Z,15.40
2023-05-10T21:34:01.114Z,15.35
2023-05-10T21:36:28.368Z,15.42
2023-05-10T21:38:55.555Z,15.43
2023-05-10T21:41:22.746Z,15.45
2023-05-10T21:43:49.934Z,15.46
2023-05-10T21:46:17.200Z,15.38
2023-05-10T21:48:45.774Z,15.38
2023-05-10T21:51:12.952Z,15.29
2023-05-10T21:53:40.607Z,15.31
2023-05-10T21:56:07.803Z,15.28
2023-05-10T21:58:35.041Z,15.24
2023-05-10T22:01:02.283Z,15.21
2023-05-10T22:03:29.786Z,15.25
2023-05-10T22:05:58.449Z,15.21
2023-05-10T22:08:25.754Z,15.16
2023-05-10T22:10:52.926Z,15.11
2023-05-10T22:13:20.156Z,15.09
2023-05-10T22:15:47.351Z,15.04
2023-05-10T22:18:14.538Z,15.05
2023-05-10T22:20:44.238Z,15.04
2023-05-10T22:23:12.948Z,15.02
2023-05-10T22:25:40.127Z,14.98
2023-05-10T22:28:08.104Z,14.97
2023-05-10T22:30:35.381Z,14.88
2023-05-10T22:33:02.886Z,14.83
2023-05-10T22:35:30.362Z,14.83
2023-05-10T22:37:57.611Z,14.87
2023-05-10T22:40:26.348Z,14.85
2023-05-10T22:42:53.588Z,14.76
2023-05-10T22:45:20.875Z,14.74
2023-05-10T22:47:48.157Z,14.74
2023-05-10T22:50:16.531Z,14.76
2023-05-10T22:52:43.945Z,14.70
2023-05-10T22:55:11.454Z,14.63
2023-05-10T22:57:40.458Z,14.57
2023-05-10T23:00:08.791Z,14.70
2023-05-10T23:02:36.094Z,14.61
2023-05-10T23:05:05.467Z,14.55
2023-05-10T23:07:33.088Z,14.55
2023-05-10T23:10:00.265Z,14.50
2023-05-10T23:12:28.118Z,14.59
2023-05-10T23:14:56.791Z,14.50
2023-05-10T23:17:24.133Z,14.40
2023-05-10T23:19:51.288Z,14.36
2023-05-10T23:22:18.475Z,14.39
2023-05-10T23:24:45.628Z,14.40
2023-05-10T23:27:12.817Z,14.40
2023-05-10T23:29:40.011Z,14.30
2023-05-10T23:32:08.740Z,14.34
2023-05-10T23:34:36.224Z,14.26
2023-05-10T23:37:03.460Z,14.23
2023-05-10T23:39:30.912Z,14.21
2023-05-10T23:41:58.139Z,14.21
2023-05-10T23:44:25.369Z,14.29
2023-05-10T23:46:52.571Z,14.26
2023-05-10T23:49:21.337Z,14.21
2023-05-10T23:51:48.554Z,14.19
2023-05-10T23:54:15.776Z,14.15
2023-05-10T23:56:43.081Z,14.04
2023-05-10T23:59:10.443Z,14.01
